Portada
METAR-TAF:

METAR-TAF

Aeroports :

Kàrpathos, Grècia

latitud: 35-24-51N, longitud: 027-08-54E, altitud: 6 m

Observació

L'informe es va fer fa 29 minuts, a les 14:20 UTC
Vent 26 kt del Oest
Temperatura 30°C
Humitat 62%
Pressió 1003 hPa
Visibilitat 10 km o més
sense núvols per sota de 1500 mi sense presència de cumulonimbus.

METAR: LGKP 191420Z 28026KT CAVOK 30/22 Q1003

Hora: 17:49 (14:49 UTC)

Pronòstic

L'informe es va fer fa 49 minuts, a les 14:00 UTC
Pronòstic vàlid del 19 a les 15 UTC al 19 a les 24 UTC
Vent 20 kt del Oest/Nord-Oest amb ràfegues de 30 kt
Visibilitat 10 km o més
sense núvols per sota de 1500 mi sense presència de cumulonimbus.

TAF: LGKP 191400Z 1915/1924 29020G30KT CAVOK

Observacions i pronòstics meteorològics de més de 4000 aeroports (METAR i TAF).

Les estacions disponibles són els punts grocs i vermells al mapa.

Posi el ratolí al punt desitjat per veure el nom de l'estació.

Feu clic per veure les observacions i els pronòstics meteorològics.

Per canviar el mapa: feu clic els botons verds amb una creu de color negre per apropar; al botó verd amb un guió per allunyar la imatge; o en les fletxes verdes per a mapes adjacents.


METAR-TAF: